createdAt,value
2023-01-26T00:01:22.373Z,79.14
2023-01-26T00:03:50.231Z,79.17
2023-01-26T00:06:18.918Z,79.23
2023-01-26T00:08:47.957Z,79.22
2023-01-26T00:11:18.774Z,79.06
2023-01-26T00:13:45.827Z,78.91
2023-01-26T00:16:15.060Z,78.76
2023-01-26T00:18:43.088Z,78.75
2023-01-26T00:21:17.111Z,78.86
2023-01-26T00:23:43.936Z,78.73
2023-01-26T00:26:14.023Z,78.72
2023-01-26T00:28:40.802Z,78.69
2023-01-26T00:31:15.634Z,78.89
2023-01-26T00:33:42.340Z,79.07
2023-01-26T00:36:09.648Z,79.00
2023-01-26T00:38:36.262Z,79.00
2023-01-26T00:41:02.948Z,79.00
2023-01-26T00:43:29.832Z,79.14
2023-01-26T00:45:56.473Z,79.68
2023-01-26T00:48:24.808Z,79.51
2023-01-26T00:50:52.725Z,79.73
2023-01-26T00:53:19.568Z,79.84
2023-01-26T00:55:46.211Z,79.89
2023-01-26T00:58:12.898Z,80.28
2023-01-26T01:00:39.578Z,80.40
2023-01-26T01:03:06.348Z,80.55
2023-01-26T01:05:33.757Z,80.41
2023-01-26T01:08:00.555Z,80.84
2023-01-26T01:10:27.671Z,80.86
2023-01-26T01:12:54.689Z,80.48
2023-01-26T01:15:21.265Z,80.88
2023-01-26T01:17:48.330Z,80.72
2023-01-26T01:20:15.068Z,80.98
2023-01-26T01:22:41.719Z,81.44
2023-01-26T01:25:08.743Z,81.52
2023-01-26T01:27:35.326Z,82.01
2023-01-26T01:30:07.712Z,81.95
2023-01-26T01:32:40.039Z,81.81
2023-01-26T01:35:07.783Z,82.07
2023-01-26T01:37:36.767Z,81.78
2023-01-26T01:40:03.566Z,81.83
2023-01-26T01:42:30.222Z,81.84
2023-01-26T01:45:38.186Z,81.58
2023-01-26T01:48:10.601Z,81.51
2023-01-26T01:50:39.751Z,80.57
2023-01-26T01:53:11.567Z,80.46
2023-01-26T01:55:38.124Z,80.80
2023-01-26T01:58:05.961Z,80.52
2023-01-26T02:00:32.864Z,80.00
2023-01-26T02:03:19.149Z,80.04
2023-01-26T02:06:18.153Z,80.02
2023-01-26T02:08:49.060Z,79.87
2023-01-26T02:11:20.650Z,79.55
2023-01-26T02:13:49.163Z,79.23
2023-01-26T02:16:17.218Z,78.62
2023-01-26T02:18:45.708Z,78.92
2023-01-26T02:21:18.155Z,78.68
2023-01-26T02:24:22.499Z,78.73
2023-01-26T02:26:49.323Z,78.46
2023-01-26T02:29:15.965Z,78.58
2023-01-26T02:31:43.073Z,78.82
2023-01-26T02:34:10.028Z,78.66
2023-01-26T02:36:36.645Z,78.42
2023-01-26T02:39:18.103Z,79.18
2023-01-26T02:42:04.691Z,78.81
2023-01-26T02:44:32.386Z,78.69
2023-01-26T02:46:58.927Z,78.82
2023-01-26T02:49:43.886Z,78.59
2023-01-26T02:52:10.498Z,79.03
2023-01-26T02:54:55.356Z,79.21
2023-01-26T02:57:22.008Z,79.13
2023-01-26T02:59:48.688Z,79.03
2023-01-26T03:02:15.743Z,78.61
2023-01-26T03:04:43.441Z,78.71
2023-01-26T03:07:10.779Z,78.41
2023-01-26T03:09:37.544Z,78.44
2023-01-26T03:12:04.502Z,78.31
2023-01-26T03:14:31.085Z,78.49
2023-01-26T03:16:57.639Z,78.09
2023-01-26T03:19:42.817Z,78.05
2023-01-26T03:22:30.100Z,78.33
2023-01-26T03:25:15.054Z,78.18
2023-01-26T03:27:46.952Z,78.07
2023-01-26T03:30:14.963Z,78.14
2023-01-26T03:32:41.787Z,78.06
2023-01-26T03:35:15.401Z,77.87
2023-01-26T03:37:45.142Z,77.88
2023-01-26T03:40:31.462Z,77.91
2023-01-26T03:43:16.406Z,77.64
2023-01-26T03:46:01.800Z,78.00
2023-01-26T03:48:47.068Z,78.13
2023-01-26T03:51:31.999Z,78.19
2023-01-26T03:54:16.991Z,77.82
2023-01-26T03:56:44.632Z,77.96
2023-01-26T03:59:15.149Z,77.80
2023-01-26T04:02:03.324Z,78.01
2023-01-26T04:04:48.784Z,77.37
2023-01-26T04:07:33.884Z,77.58
2023-01-26T04:10:00.523Z,77.87
2023-01-26T04:12:27.156Z,77.83
2023-01-26T04:15:12.055Z,78.10
2023-01-26T04:17:57.181Z,78.12
2023-01-26T04:20:42.188Z,78.40
2023-01-26T04:23:17.846Z,78.01
2023-01-26T04:25:44.413Z,78.00
2023-01-26T04:28:10.999Z,77.99
2023-01-26T04:30:37.607Z,77.89
2023-01-26T04:33:04.715Z,77.99
2023-01-26T04:35:31.262Z,77.33
2023-01-26T04:37:57.847Z,77.09
2023-01-26T04:40:24.683Z,77.30
2023-01-26T04:42:51.230Z,76.85
2023-01-26T04:45:17.823Z,77.26
2023-01-26T04:47:44.412Z,77.58
2023-01-26T04:50:11.345Z,77.36
2023-01-26T04:52:38.153Z,77.83
2023-01-26T04:55:05.011Z,77.35
2023-01-26T04:57:31.561Z,77.32
2023-01-26T04:59:58.158Z,77.55
2023-01-26T05:02:24.711Z,77.33
2023-01-26T05:04:51.273Z,77.34
2023-01-26T05:07:17.875Z,77.41
2023-01-26T05:09:44.455Z,77.25
2023-01-26T05:12:29.585Z,77.29
2023-01-26T05:14:56.141Z,77.07
2023-01-26T05:17:22.756Z,76.85
2023-01-26T05:19:49.311Z,77.10
2023-01-26T05:22:16.007Z,76.90
2023-01-26T05:24:42.574Z,76.96
2023-01-26T05:27:21.113Z,76.96
2023-01-26T05:29:48.189Z,76.65
2023-01-26T05:32:14.795Z,76.70
2023-01-26T05:34:41.402Z,76.03
2023-01-26T05:37:07.992Z,76.04
2023-01-26T05:39:34.559Z,76.15
2023-01-26T05:42:01.159Z,76.04
2023-01-26T05:44:29.306Z,75.66
2023-01-26T05:46:55.961Z,76.07
2023-01-26T05:49:22.630Z,75.93
2023-01-26T05:51:49.270Z,76.25
2023-01-26T05:54:15.822Z,75.69
2023-01-26T05:56:42.599Z,75.74
2023-01-26T05:59:09.296Z,76.35
2023-01-26T06:01:35.961Z,79.36
2023-01-26T06:04:02.913Z,79.09
2023-01-26T06:06:29.644Z,75.08
2023-01-26T06:08:56.379Z,71.68
2023-01-26T06:11:23.019Z,70.78
2023-01-26T06:13:49.864Z,70.45
2023-01-26T06:16:16.569Z,70.18
2023-01-26T06:18:43.177Z,71.19
2023-01-26T06:21:09.942Z,71.74
2023-01-26T06:23:36.567Z,72.19
2023-01-26T06:26:03.230Z,72.42
2023-01-26T06:28:31.243Z,72.71
2023-01-26T06:31:02.368Z,71.70
2023-01-26T06:33:31.216Z,72.10
2023-01-26T06:36:05.558Z,72.43
2023-01-26T06:38:32.668Z,72.78
2023-01-26T06:41:03.220Z,73.27
2023-01-26T06:43:31.357Z,73.78
2023-01-26T06:45:59.156Z,73.59
2023-01-26T06:48:26.994Z,73.83
2023-01-26T06:50:57.336Z,74.25
2023-01-26T06:53:33.402Z,74.25
2023-01-26T06:56:00.029Z,74.41
2023-01-26T06:58:26.627Z,74.66
2023-01-26T07:00:53.311Z,74.80
2023-01-26T07:03:19.904Z,74.17
2023-01-26T07:05:46.529Z,74.56
2023-01-26T07:08:13.230Z,74.61
2023-01-26T07:10:39.933Z,74.67
2023-01-26T07:13:06.625Z,74.74
2023-01-26T07:15:33.652Z,74.62
2023-01-26T07:18:00.629Z,74.52
2023-01-26T07:20:27.947Z,74.52
2023-01-26T07:22:54.699Z,74.55
2023-01-26T07:25:21.355Z,74.83
2023-01-26T07:27:47.928Z,74.75
2023-01-26T07:30:14.752Z,74.83
2023-01-26T07:32:42.172Z,75.15
2023-01-26T07:35:09.075Z,74.66
2023-01-26T07:37:35.800Z,74.80
2023-01-26T07:40:03.683Z,75.13
2023-01-26T07:42:31.147Z,75.55
2023-01-26T07:44:57.825Z,75.45
2023-01-26T07:47:24.525Z,75.53
2023-01-26T07:49:51.154Z,74.97
2023-01-26T07:52:17.791Z,74.19
2023-01-26T07:54:44.481Z,74.86
2023-01-26T07:57:12.700Z,74.27
2023-01-26T07:59:39.258Z,74.34
2023-01-26T08:02:06.217Z,74.58
2023-01-26T08:04:32.902Z,74.25
2023-01-26T08:06:59.510Z,73.64
2023-01-26T08:09:26.646Z,73.71
2023-01-26T08:11:53.299Z,73.17
2023-01-26T08:14:19.895Z,73.13
2023-01-26T08:16:46.692Z,73.63
2023-01-26T08:19:13.705Z,73.35
2023-01-26T08:21:40.298Z,72.91
2023-01-26T08:24:07.261Z,72.28
2023-01-26T08:26:33.953Z,72.20
2023-01-26T08:29:00.659Z,72.11
2023-01-26T08:31:28.396Z,71.26
2023-01-26T08:33:56.522Z,72.09
2023-01-26T08:36:23.382Z,72.46
2023-01-26T08:38:51.037Z,72.11
2023-01-26T08:41:18.360Z,72.17
2023-01-26T08:43:45.057Z,71.88
2023-01-26T08:46:11.701Z,71.79
2023-01-26T08:48:38.768Z,71.33
2023-01-26T08:51:06.728Z,71.98
2023-01-26T08:53:35.169Z,71.83
2023-01-26T08:56:06.824Z,71.85
2023-01-26T08:58:34.147Z,71.71
2023-01-26T09:01:12.026Z,72.18
2023-01-26T09:03:38.736Z,72.29
2023-01-26T09:06:06.623Z,72.11
2023-01-26T09:08:33.815Z,72.39
2023-01-26T09:11:00.769Z,72.25
2023-01-26T09:13:27.512Z,72.27
2023-01-26T09:15:54.269Z,72.74
2023-01-26T09:18:20.882Z,72.27
2023-01-26T09:20:47.466Z,72.87
2023-01-26T09:23:16.338Z,72.26
2023-01-26T09:25:42.937Z,72.52
2023-01-26T09:28:09.507Z,72.32
2023-01-26T09:30:36.256Z,71.96
2023-01-26T09:33:05.136Z,71.28
2023-01-26T09:35:31.989Z,71.49
2023-01-26T09:37:58.570Z,70.77
2023-01-26T09:40:43.165Z,71.35
2023-01-26T09:43:29.598Z,71.73
2023-01-26T09:46:23.918Z,72.57
2023-01-26T09:49:05.203Z,72.28
2023-01-26T09:51:38.891Z,72.16
2023-01-26T09:54:05.568Z,72.41
2023-01-26T09:56:35.225Z,72.08
2023-01-26T09:59:17.670Z,72.76
2023-01-26T10:01:53.883Z,72.74
2023-01-26T10:04:33.846Z,72.82
2023-01-26T10:07:02.928Z,73.04
2023-01-26T10:09:35.194Z,72.91
2023-01-26T10:12:08.831Z,73.47
2023-01-26T10:14:35.421Z,73.06
2023-01-26T10:17:05.234Z,73.58
2023-01-26T10:19:43.689Z,72.99
2023-01-26T10:22:18.161Z,72.58
2023-01-26T10:24:49.072Z,72.97
2023-01-26T10:27:15.875Z,73.28
2023-01-26T10:29:42.589Z,72.02
2023-01-26T10:32:18.637Z,71.92
2023-01-26T10:34:51.388Z,72.44
2023-01-26T10:37:22.791Z,72.65
2023-01-26T10:39:57.163Z,71.96
2023-01-26T10:42:28.362Z,71.84
2023-01-26T10:44:55.142Z,71.26
2023-01-26T10:47:22.356Z,70.75
2023-01-26T10:49:49.575Z,70.67
2023-01-26T10:52:24.949Z,70.63
2023-01-26T10:55:11.742Z,70.95
2023-01-26T10:57:41.777Z,71.15
2023-01-26T11:00:23.968Z,70.92
2023-01-26T11:02:59.946Z,70.96
2023-01-26T11:05:27.255Z,70.54
2023-01-26T11:08:00.137Z,70.39
2023-01-26T11:10:27.176Z,70.43
2023-01-26T11:13:19.372Z,70.59
2023-01-26T11:15:50.119Z,70.70
2023-01-26T11:18:29.600Z,70.01
2023-01-26T11:21:27.884Z,70.62
2023-01-26T11:24:03.454Z,70.70
2023-01-26T11:26:48.155Z,70.23
2023-01-26T11:29:41.675Z,70.73
2023-01-26T11:32:33.344Z,70.21
2023-01-26T11:35:09.249Z,70.43
2023-01-26T11:37:38.743Z,70.68
2023-01-26T11:40:14.505Z,70.05
2023-01-26T11:42:47.191Z,69.57
2023-01-26T11:45:39.046Z,69.82
2023-01-26T11:48:45.326Z,70.26
2023-01-26T11:51:39.071Z,70.36
2023-01-26T11:54:19.567Z,70.78
2023-01-26T11:57:04.723Z,70.85
2023-01-26T11:59:38.779Z,70.23
2023-01-26T12:02:27.944Z,70.46
2023-01-26T12:04:55.858Z,70.30
2023-01-26T12:07:29.529Z,70.97
2023-01-26T12:09:56.834Z,70.35
2023-01-26T12:12:40.120Z,70.22
2023-01-26T12:15:11.781Z,69.50
2023-01-26T12:17:53.400Z,69.73
2023-01-26T12:20:41.434Z,69.69
2023-01-26T12:23:21.787Z,69.66
2023-01-26T12:25:54.645Z,69.11
2023-01-26T12:28:44.507Z,69.29
2023-01-26T12:31:28.853Z,69.68
2023-01-26T12:33:57.244Z,69.14
2023-01-26T12:36:34.239Z,69.28
2023-01-26T12:39:12.668Z,69.38
2023-01-26T12:42:04.829Z,69.59
2023-01-26T12:44:36.943Z,70.18
2023-01-26T12:47:42.063Z,69.86
2023-01-26T12:50:27.005Z,70.06
2023-01-26T12:53:19.862Z,70.12
2023-01-26T12:55:54.868Z,70.07
2023-01-26T12:58:44.453Z,70.72
2023-01-26T13:01:21.566Z,70.79
2023-01-26T13:04:05.186Z,70.61
2023-01-26T13:06:32.040Z,71.08
2023-01-26T13:09:06.096Z,71.54
2023-01-26T13:11:49.892Z,71.82
2023-01-26T13:14:25.795Z,71.91
2023-01-26T13:16:52.791Z,72.13
2023-01-26T13:19:34.631Z,72.43
2023-01-26T13:22:01.305Z,72.47
2023-01-26T13:24:27.895Z,72.88
2023-01-26T13:26:57.665Z,72.91
2023-01-26T13:29:27.472Z,72.65
2023-01-26T13:31:55.983Z,72.67
2023-01-26T13:34:28.242Z,72.43
2023-01-26T13:37:04.196Z,72.91
2023-01-26T13:39:41.416Z,72.94
2023-01-26T13:42:28.631Z,72.78
2023-01-26T13:45:03.052Z,72.83
2023-01-26T13:47:41.005Z,72.14
2023-01-26T13:50:28.710Z,72.37
2023-01-26T13:52:55.491Z,72.49
2023-01-26T13:55:28.688Z,72.58
2023-01-26T13:58:18.872Z,73.03
2023-01-26T14:01:02.777Z,73.36
2023-01-26T14:03:31.129Z,73.61
2023-01-26T14:06:06.130Z,73.35
2023-01-26T14:08:33.475Z,72.88
2023-01-26T14:11:02.510Z,72.75
2023-01-26T14:13:34.141Z,73.34
2023-01-26T14:16:02.698Z,73.30
2023-01-26T14:18:29.463Z,73.33
2023-01-26T14:21:14.415Z,73.16
2023-01-26T14:23:41.017Z,73.31
2023-01-26T14:26:22.585Z,73.26
2023-01-26T14:28:49.214Z,73.55
2023-01-26T14:31:22.917Z,73.60
2023-01-26T14:33:55.232Z,73.75
2023-01-26T14:36:22.079Z,72.98
2023-01-26T14:38:51.800Z,73.27
2023-01-26T14:41:37.079Z,73.14
2023-01-26T14:44:06.098Z,73.33
2023-01-26T14:46:52.747Z,73.19
2023-01-26T14:49:54.996Z,73.43
2023-01-26T14:52:25.651Z,73.08
2023-01-26T14:54:54.630Z,73.30
2023-01-26T14:57:25.043Z,73.02
2023-01-26T14:59:55.052Z,73.11
2023-01-26T15:02:26.218Z,73.09
2023-01-26T15:05:14.283Z,73.62
2023-01-26T15:07:40.893Z,73.56
2023-01-26T15:10:35.111Z,73.56
2023-01-26T15:13:10.793Z,73.58
2023-01-26T15:15:40.590Z,73.97
2023-01-26T15:18:13.137Z,74.41
2023-01-26T15:20:45.887Z,74.32
2023-01-26T15:23:23.363Z,74.05
2023-01-26T15:25:50.618Z,74.55
2023-01-26T15:28:19.831Z,74.65
2023-01-26T15:30:50.346Z,74.71
2023-01-26T15:33:38.765Z,74.94
2023-01-26T15:36:06.196Z,75.17
2023-01-26T15:38:32.977Z,75.43
2023-01-26T15:40:59.599Z,75.68
2023-01-26T15:43:26.184Z,75.40
2023-01-26T15:45:57.998Z,75.86
2023-01-26T15:48:24.919Z,75.85
2023-01-26T15:50:51.705Z,75.93
2023-01-26T15:53:21.259Z,76.36
2023-01-26T15:55:58.701Z,76.27
2023-01-26T15:58:26.184Z,76.56
2023-01-26T16:00:53.484Z,76.97
2023-01-26T16:03:22.337Z,76.94
2023-01-26T16:05:49.480Z,77.11
2023-01-26T16:08:17.831Z,77.23
2023-01-26T16:10:45.329Z,77.06
2023-01-26T16:13:20.319Z,77.20
2023-01-26T16:15:52.811Z,77.37
2023-01-26T16:18:20.351Z,77.37
2023-01-26T16:20:48.719Z,77.72
2023-01-26T16:23:26.863Z,77.81
2023-01-26T16:25:53.793Z,77.75
2023-01-26T16:28:21.101Z,78.06
2023-01-26T16:30:50.300Z,78.16
2023-01-26T16:33:22.712Z,78.26
2023-01-26T16:35:49.275Z,78.11
2023-01-26T16:38:16.013Z,78.17
2023-01-26T16:40:44.932Z,78.31
2023-01-26T16:43:30.669Z,78.49
2023-01-26T16:45:57.973Z,78.63
2023-01-26T16:48:24.918Z,78.39
2023-01-26T16:50:53.719Z,78.51
2023-01-26T16:53:28.236Z,78.50
2023-01-26T16:55:55.292Z,78.75
2023-01-26T16:58:23.033Z,78.70
2023-01-26T17:00:49.691Z,78.97
2023-01-26T17:03:16.418Z,78.70
2023-01-26T17:05:43.389Z,78.79
2023-01-26T17:08:10.020Z,78.72
2023-01-26T17:10:36.650Z,79.10
2023-01-26T17:13:03.671Z,78.64
2023-01-26T17:15:30.571Z,78.72
2023-01-26T17:17:57.851Z,78.41
2023-01-26T17:20:25.099Z,78.83
2023-01-26T17:22:51.763Z,78.71
2023-01-26T17:25:19.269Z,78.50
2023-01-26T17:27:49.776Z,78.62
2023-01-26T17:30:19.471Z,78.96
2023-01-26T17:32:46.228Z,78.94
2023-01-26T17:35:12.995Z,78.86
2023-01-26T17:37:40.361Z,79.13
2023-01-26T17:40:10.214Z,79.47
2023-01-26T17:42:37.010Z,79.36
2023-01-26T17:45:05.526Z,80.25
2023-01-26T17:47:33.855Z,79.52
2023-01-26T17:50:02.242Z,79.81
2023-01-26T17:52:28.961Z,79.77
2023-01-26T17:54:55.523Z,79.92
2023-01-26T17:57:22.226Z,79.72
2023-01-26T17:59:48.842Z,79.73
2023-01-26T18:02:15.534Z,79.85
2023-01-26T18:04:42.209Z,80.01
2023-01-26T18:07:08.831Z,80.11
2023-01-26T18:09:35.403Z,80.34
2023-01-26T18:12:02.038Z,80.70
2023-01-26T18:14:29.276Z,80.30
2023-01-26T18:16:55.960Z,80.61
2023-01-26T18:19:22.740Z,80.43
2023-01-26T18:21:51.127Z,80.72
2023-01-26T18:24:17.920Z,80.25
2023-01-26T18:26:45.025Z,80.53
2023-01-26T18:29:11.790Z,80.45
2023-01-26T18:31:43.582Z,80.44
2023-01-26T18:34:11.660Z,80.56
2023-01-26T18:36:38.492Z,80.62
2023-01-26T18:39:07.150Z,80.73
2023-01-26T18:41:35.265Z,80.74
2023-01-26T18:44:03.746Z,80.56
2023-01-26T18:46:31.365Z,80.78
2023-01-26T18:49:03.148Z,80.87
2023-01-26T18:51:32.184Z,80.90
2023-01-26T18:53:59.072Z,80.66
2023-01-26T18:56:26.197Z,80.65
2023-01-26T18:58:53.997Z,80.87
2023-01-26T19:01:21.357Z,81.11
2023-01-26T19:03:55.095Z,80.65
2023-01-26T19:06:23.533Z,80.77
2023-01-26T19:08:58.306Z,80.94
2023-01-26T19:11:27.760Z,80.91
2023-01-26T19:13:55.443Z,81.10
2023-01-26T19:16:22.491Z,81.07
2023-01-26T19:18:49.976Z,81.09
2023-01-26T19:21:21.402Z,81.05
2023-01-26T19:23:49.226Z,81.08
2023-01-26T19:26:19.365Z,80.98
2023-01-26T19:28:50.232Z,81.43
2023-01-26T19:31:19.450Z,81.19
2023-01-26T19:33:57.615Z,81.20
2023-01-26T19:36:25.272Z,81.53
2023-01-26T19:38:52.018Z,81.13
2023-01-26T19:41:19.909Z,80.95
2023-01-26T19:43:46.794Z,80.80
2023-01-26T19:46:14.981Z,81.24
2023-01-26T19:48:42.087Z,81.17
2023-01-26T19:51:12.724Z,81.75
2023-01-26T19:53:41.881Z,81.71
2023-01-26T19:56:12.955Z,81.76
2023-01-26T19:58:40.184Z,81.94
2023-01-26T20:01:09.100Z,81.54
2023-01-26T20:03:36.335Z,82.28
2023-01-26T20:06:04.436Z,81.93
2023-01-26T20:08:31.549Z,82.17
2023-01-26T20:11:05.830Z,82.27
2023-01-26T20:13:33.940Z,82.15
2023-01-26T20:16:01.195Z,82.43
2023-01-26T20:18:27.800Z,82.41
2023-01-26T20:20:55.879Z,82.36
2023-01-26T20:23:23.281Z,82.56
2023-01-26T20:25:51.626Z,82.51
2023-01-26T20:28:18.754Z,82.11
2023-01-26T20:30:45.547Z,82.37
2023-01-26T20:33:12.574Z,82.04
2023-01-26T20:35:40.615Z,82.10
2023-01-26T20:38:07.221Z,82.15
2023-01-26T20:40:33.810Z,82.10
2023-01-26T20:43:00.535Z,82.17
2023-01-26T20:45:27.117Z,81.99
2023-01-26T20:47:53.807Z,82.36
2023-01-26T20:50:20.620Z,82.11
2023-01-26T20:52:47.225Z,82.08
2023-01-26T20:55:13.919Z,81.96
2023-01-26T20:57:40.562Z,82.11
2023-01-26T21:00:08.242Z,82.16
2023-01-26T21:02:34.817Z,81.60
2023-01-26T21:05:01.465Z,81.98
2023-01-26T21:07:28.690Z,82.15
2023-01-26T21:09:55.342Z,82.07
2023-01-26T21:12:21.915Z,82.03
2023-01-26T21:14:48.537Z,82.00
2023-01-26T21:17:16.475Z,81.80
2023-01-26T21:19:43.012Z,81.94
2023-01-26T21:22:09.636Z,82.19
2023-01-26T21:24:36.226Z,82.07
2023-01-26T21:27:03.024Z,82.05
2023-01-26T21:29:29.634Z,82.17
2023-01-26T21:31:56.213Z,82.01
2023-01-26T21:34:22.815Z,82.04
2023-01-26T21:36:49.710Z,82.08
2023-01-26T21:39:16.379Z,81.93
2023-01-26T21:41:57.904Z,82.32
2023-01-26T21:44:31.677Z,82.23
2023-01-26T21:47:01.023Z,82.39
2023-01-26T21:49:28.614Z,82.39
2023-01-26T21:52:25.515Z,82.32
2023-01-26T21:54:52.323Z,82.05
2023-01-26T21:57:37.569Z,82.24
2023-01-26T22:00:04.628Z,82.29
2023-01-26T22:02:31.188Z,82.12
2023-01-26T22:04:57.748Z,82.38
2023-01-26T22:07:24.390Z,82.31
2023-01-26T22:09:51.009Z,82.21
2023-01-26T22:12:17.676Z,82.28
2023-01-26T22:14:44.276Z,82.11
2023-01-26T22:17:10.923Z,81.93
2023-01-26T22:19:37.644Z,82.38
2023-01-26T22:22:04.496Z,82.29
2023-01-26T22:24:31.121Z,82.16
2023-01-26T22:26:57.741Z,82.22
2023-01-26T22:29:24.481Z,82.07
2023-01-26T22:31:51.078Z,82.10
2023-01-26T22:34:17.802Z,82.00
2023-01-26T22:36:44.443Z,82.30
2023-01-26T22:39:12.359Z,82.11
2023-01-26T22:41:39.084Z,82.14
2023-01-26T22:44:06.149Z,81.98
2023-01-26T22:46:33.488Z,82.29
2023-01-26T22:49:00.423Z,81.98
2023-01-26T22:51:30.190Z,82.18
2023-01-26T22:53:58.178Z,82.17
2023-01-26T22:56:25.574Z,82.03
2023-01-26T22:58:59.316Z,82.23
2023-01-26T23:01:31.823Z,81.95
2023-01-26T23:03:59.763Z,81.70
2023-01-26T23:06:26.803Z,82.09
2023-01-26T23:08:54.222Z,82.26
2023-01-26T23:11:26.848Z,82.52
2023-01-26T23:13:55.270Z,82.11
2023-01-26T23:16:23.775Z,82.07
2023-01-26T23:18:51.860Z,82.43
2023-01-26T23:21:19.024Z,82.56
2023-01-26T23:23:45.609Z,82.13
2023-01-26T23:26:12.226Z,82.36
2023-01-26T23:28:41.091Z,82.34
2023-01-26T23:31:08.580Z,82.16
2023-01-26T23:33:36.609Z,82.40
2023-01-26T23:36:04.857Z,82.04
2023-01-26T23:38:31.659Z,82.44
2023-01-26T23:41:00.490Z,82.10
2023-01-26T23:43:27.511Z,82.20
2023-01-26T23:45:56.425Z,82.02
2023-01-26T23:48:24.414Z,82.18
2023-01-26T23:51:04.648Z,82.29
2023-01-26T23:53:31.806Z,82.30
2023-01-26T23:56:06.323Z,82.38
2023-01-26T23:58:33.103Z,82.27
